createdAt,value
2023-02-11T00:00:26.552Z,980.24
2023-02-11T00:01:26.580Z,980.26
2023-02-11T00:02:26.520Z,980.23
2023-02-11T00:03:26.476Z,980.24
2023-02-11T00:05:26.549Z,980.23
2023-02-11T00:06:26.513Z,980.21
2023-02-11T00:07:26.538Z,980.22
2023-02-11T00:08:26.386Z,980.2
2023-02-11T00:09:26.537Z,980.21
2023-02-11T00:10:26.476Z,980.18
2023-02-11T00:11:26.484Z,980.22
2023-02-11T00:12:26.550Z,980.25
2023-02-11T00:14:26.713Z,980.24
2023-02-11T00:16:26.684Z,980.25
2023-02-11T00:17:26.525Z,980.18
2023-02-11T00:18:26.535Z,980.17
2023-02-11T00:19:26.560Z,980.16
2023-02-11T00:20:26.491Z,980.15
2023-02-11T00:21:26.509Z,980.17
2023-02-11T00:22:26.430Z,980.19
2023-02-11T00:23:26.556Z,980.23
2023-02-11T00:24:26.668Z,980.22
2023-02-11T00:26:26.594Z,980.2
2023-02-11T00:27:26.607Z,980.24
2023-02-11T00:28:26.579Z,980.23
2023-02-11T00:29:26.455Z,980.2
2023-02-11T00:30:26.501Z,980.21
2023-02-11T00:32:26.599Z,980.18
2023-02-11T00:33:27.544Z,980.2
2023-02-11T00:34:26.559Z,980.22
2023-02-11T00:35:26.571Z,980.21
2023-02-11T00:37:26.567Z,980.2
2023-02-11T00:38:26.528Z,980.19
2023-02-11T00:39:26.748Z,980.23
2023-02-11T00:41:26.652Z,980.2
2023-02-11T00:42:26.724Z,980.23
2023-02-11T00:43:26.599Z,980.26
2023-02-11T00:44:26.533Z,980.25
2023-02-11T00:45:26.557Z,980.23
2023-02-11T00:46:26.693Z,980.26
2023-02-11T00:47:26.678Z,980.24
2023-02-11T00:48:26.532Z,980.26
2023-02-11T00:49:26.749Z,980.23
2023-02-11T00:50:26.755Z,980.24
2023-02-11T00:51:26.671Z,980.22
2023-02-11T00:52:26.576Z,980.19
2023-02-11T00:53:26.650Z,980.16
2023-02-11T00:54:29.030Z,980.12
2023-02-11T00:55:26.703Z,980.08
2023-02-11T00:56:26.561Z,980.11
2023-02-11T00:57:26.750Z,980.07
2023-02-11T00:58:26.644Z,980.06
2023-02-11T01:00:26.551Z,980.05
2023-02-11T01:01:26.700Z,980.07
2023-02-11T01:03:26.624Z,980.05
2023-02-11T01:05:26.790Z,980.04
2023-02-11T01:06:26.763Z,980
2023-02-11T01:07:26.573Z,980.02
2023-02-11T01:08:26.651Z,980.03
2023-02-11T01:09:26.561Z,980.01
2023-02-11T01:10:26.567Z,979.97
2023-02-11T01:11:26.719Z,979.98
2023-02-11T01:12:26.780Z,979.97
2023-02-11T01:13:26.626Z,979.96
2023-02-11T01:14:26.830Z,979.97
2023-02-11T01:16:26.695Z,979.95
2023-02-11T01:17:26.759Z,979.93
2023-02-11T01:18:26.631Z,979.89
2023-02-11T01:19:26.730Z,979.92
2023-02-11T01:20:26.635Z,979.91
2023-02-11T01:23:26.701Z,979.89
2023-02-11T01:24:26.661Z,979.88
2023-02-11T01:25:27.856Z,979.86
2023-02-11T01:27:26.746Z,979.87
2023-02-11T01:28:26.823Z,979.82
2023-02-11T01:30:26.730Z,979.77
2023-02-11T01:31:26.912Z,979.73
2023-02-11T01:32:26.869Z,979.74
2023-02-11T01:33:26.716Z,979.75
2023-02-11T01:34:26.689Z,979.69
2023-02-11T01:35:26.673Z,979.65
2023-02-11T01:36:26.778Z,979.66
2023-02-11T01:37:26.879Z,979.68
2023-02-11T01:38:26.921Z,979.63
2023-02-11T01:39:26.786Z,979.62
2023-02-11T01:40:26.677Z,979.64
2023-02-11T01:41:26.874Z,979.66
2023-02-11T01:43:26.909Z,979.69
2023-02-11T01:44:26.733Z,979.7
2023-02-11T01:45:26.652Z,979.68
2023-02-11T01:46:26.913Z,979.66
2023-02-11T01:47:26.833Z,979.62
2023-02-11T01:48:26.814Z,979.61
2023-02-11T01:49:26.794Z,979.63
2023-02-11T01:50:26.792Z,979.61
2023-02-11T01:51:26.943Z,979.57
2023-02-11T01:52:26.703Z,979.6
2023-02-11T01:53:26.830Z,979.62
2023-02-11T01:54:26.733Z,979.66
2023-02-11T01:55:26.861Z,979.64
2023-02-11T01:56:26.757Z,979.66
2023-02-11T01:57:26.843Z,979.68
2023-02-11T01:58:26.738Z,979.63
2023-02-11T01:59:26.873Z,979.62
2023-02-11T02:00:26.811Z,979.58
2023-02-11T02:01:26.924Z,979.56
2023-02-11T02:02:26.816Z,979.47
2023-02-11T02:03:26.771Z,979.46
2023-02-11T02:04:26.779Z,979.45
2023-02-11T02:05:26.722Z,979.43
2023-02-11T02:06:26.905Z,979.44
2023-02-11T02:07:26.928Z,979.39
2023-02-11T02:08:26.745Z,979.36
2023-02-11T02:09:26.965Z,979.38
2023-02-11T02:10:26.863Z,979.36
2023-02-11T02:11:26.908Z,979.35
2023-02-11T02:12:26.902Z,979.34
2023-02-11T02:13:26.832Z,979.32
2023-02-11T02:15:26.936Z,979.31
2023-02-11T02:16:27.032Z,979.27
2023-02-11T02:18:26.953Z,979.24
2023-02-11T02:19:26.930Z,979.22
2023-02-11T02:20:26.861Z,979.2
2023-02-11T02:22:26.910Z,979.17
2023-02-11T02:23:26.809Z,979.19
2023-02-11T02:25:26.914Z,979.17
2023-02-11T02:28:27.022Z,979.19
2023-02-11T02:29:26.897Z,979.2
2023-02-11T02:30:26.995Z,979.22
2023-02-11T02:31:26.873Z,979.21
2023-02-11T02:32:26.891Z,979.22
2023-02-11T02:33:26.853Z,979.24
2023-02-11T02:35:26.769Z,979.23
2023-02-11T02:36:26.990Z,979.2
2023-02-11T02:37:26.900Z,979.22
2023-02-11T02:38:28.265Z,979.2
2023-02-11T02:39:26.896Z,979.17
2023-02-11T02:41:27.029Z,979.14
2023-02-11T02:42:26.925Z,979.15
2023-02-11T02:43:26.884Z,979.14
2023-02-11T02:44:26.890Z,979.16
2023-02-11T02:45:26.838Z,979.18
2023-02-11T02:47:27.026Z,979.22
2023-02-11T02:48:26.971Z,979.2
2023-02-11T02:49:27.014Z,979.18
2023-02-11T02:50:26.991Z,979.16
2023-02-11T02:52:26.953Z,979.13
2023-02-11T02:53:27.003Z,979.1
2023-02-11T02:54:27.006Z,979.13
2023-02-11T02:55:26.927Z,979.14
2023-02-11T02:56:27.041Z,979.1
2023-02-11T02:57:26.977Z,979.11
2023-02-11T02:58:26.950Z,979.09
2023-02-11T02:59:27.053Z,979.04
2023-02-11T03:00:26.980Z,979.07
2023-02-11T03:02:27.002Z,979.09
2023-02-11T03:03:26.986Z,979.15
2023-02-11T03:04:27.028Z,979.18
2023-02-11T03:05:26.986Z,979.2
2023-02-11T03:06:26.872Z,979.23
2023-02-11T03:07:27.095Z,979.24
2023-02-11T03:08:27.059Z,979.28
2023-02-11T03:09:26.943Z,979.26
2023-02-11T03:10:27.035Z,979.23
2023-02-11T03:11:26.945Z,979.27
2023-02-11T03:12:27.020Z,979.24
2023-02-11T03:15:26.873Z,979.2
2023-02-11T03:16:27.009Z,979.17
2023-02-11T03:17:26.955Z,979.2
2023-02-11T03:18:27.008Z,979.19
2023-02-11T03:19:27.001Z,979.21
2023-02-11T03:20:26.909Z,979.19
2023-02-11T03:21:27.000Z,979.23
2023-02-11T03:22:27.063Z,979.19
2023-02-11T03:23:27.068Z,979.18
2023-02-11T03:24:27.062Z,979.15
2023-02-11T03:25:27.073Z,979.16
2023-02-11T03:26:27.088Z,979.14
2023-02-11T03:27:27.009Z,979.12
2023-02-11T03:28:27.101Z,979.15
2023-02-11T03:29:27.059Z,979.12
2023-02-11T03:31:27.199Z,979.08
2023-02-11T03:32:27.070Z,979.07
2023-02-11T03:33:27.012Z,979.02
2023-02-11T03:34:27.026Z,978.99
2023-02-11T03:35:27.003Z,979.04
2023-02-11T03:36:27.021Z,979.03
2023-02-11T03:37:28.071Z,979.06
2023-02-11T03:38:26.985Z,979.07
2023-02-11T03:39:26.899Z,979.09
2023-02-11T03:42:27.044Z,979.06
2023-02-11T03:43:26.977Z,979.08
2023-02-11T03:44:26.927Z,979
2023-02-11T03:48:28.653Z,978.99
2023-02-11T03:49:27.082Z,978.94
2023-02-11T03:50:26.938Z,978.91
2023-02-11T03:51:26.972Z,978.94
2023-02-11T03:52:27.017Z,978.9
2023-02-11T03:53:27.043Z,978.84
2023-02-11T03:54:27.074Z,978.87
2023-02-11T03:55:26.995Z,978.89
2023-02-11T03:56:27.034Z,978.85
2023-02-11T03:57:27.011Z,978.89
2023-02-11T03:58:27.013Z,978.91
2023-02-11T03:59:27.096Z,978.98
2023-02-11T04:00:28.121Z,978.97
2023-02-11T04:01:27.214Z,979.04
2023-02-11T04:02:26.968Z,979.02
2023-02-11T04:03:27.230Z,979.03
2023-02-11T04:04:27.133Z,978.99
2023-02-11T04:05:27.062Z,978.95
2023-02-11T04:06:27.218Z,978.9
2023-02-11T04:07:27.145Z,978.86
2023-02-11T04:08:27.079Z,978.85
2023-02-11T04:09:27.107Z,978.78
2023-02-11T04:10:27.091Z,978.82
2023-02-11T04:11:27.091Z,978.86
2023-02-11T04:12:27.048Z,978.78
2023-02-11T04:13:27.176Z,978.84
2023-02-11T04:14:27.113Z,978.78
2023-02-11T04:15:26.999Z,978.79
2023-02-11T04:16:27.296Z,978.81
2023-02-11T04:17:27.070Z,978.79
2023-02-11T04:18:27.022Z,978.82
2023-02-11T04:19:27.171Z,978.81
2023-02-11T04:20:27.017Z,978.8
2023-02-11T04:21:27.210Z,978.84
2023-02-11T04:22:27.099Z,978.81
2023-02-11T04:23:27.044Z,978.84
2023-02-11T04:24:27.074Z,978.86
2023-02-11T04:25:27.114Z,978.83
2023-02-11T04:26:27.164Z,978.86
2023-02-11T04:28:27.164Z,978.88
2023-02-11T04:29:27.247Z,978.86
2023-02-11T04:30:27.148Z,978.85
2023-02-11T04:31:27.325Z,978.83
2023-02-11T04:32:27.130Z,978.79
2023-02-11T04:34:27.186Z,978.77
2023-02-11T04:35:27.216Z,978.78
2023-02-11T04:36:27.283Z,978.77
2023-02-11T04:37:27.217Z,978.82
2023-02-11T04:38:27.257Z,978.83
2023-02-11T04:39:27.225Z,978.86
2023-02-11T04:40:27.111Z,978.84
2023-02-11T04:41:28.426Z,978.91
2023-02-11T04:42:27.120Z,978.88
2023-02-11T04:44:31.396Z,978.83
2023-02-11T04:45:27.176Z,978.81
2023-02-11T04:46:27.254Z,978.82
2023-02-11T04:47:27.104Z,978.83
2023-02-11T04:49:27.248Z,978.85
2023-02-11T04:50:27.071Z,978.87
2023-02-11T04:51:27.225Z,978.92
2023-02-11T04:52:27.114Z,978.93
2023-02-11T04:55:27.123Z,978.9
2023-02-11T04:56:27.220Z,978.94
2023-02-11T04:57:27.207Z,978.9
2023-02-11T04:59:27.202Z,978.85
2023-02-11T05:00:27.213Z,978.88
2023-02-11T05:01:27.240Z,978.9
2023-02-11T05:02:27.306Z,978.87
2023-02-11T05:03:27.302Z,978.89
2023-02-11T05:04:27.274Z,978.87
2023-02-11T05:05:27.144Z,978.92
2023-02-11T05:06:27.189Z,978.89
2023-02-11T05:07:27.357Z,978.95
2023-02-11T05:08:27.151Z,978.96
2023-02-11T05:09:27.223Z,979
2023-02-11T05:10:27.305Z,979.02
2023-02-11T05:11:27.193Z,979.01
2023-02-11T05:12:27.284Z,979.05
2023-02-11T05:13:27.379Z,979.1
2023-02-11T05:14:27.334Z,979.07
2023-02-11T05:15:27.261Z,979.11
2023-02-11T05:16:27.316Z,979.08
2023-02-11T05:17:27.229Z,979.11
2023-02-11T05:19:27.365Z,979.12
2023-02-11T05:20:27.264Z,979.04
2023-02-11T05:21:27.242Z,979.02
2023-02-11T05:22:27.348Z,979.03
2023-02-11T05:23:27.364Z,978.96
2023-02-11T05:24:27.380Z,979
2023-02-11T05:25:27.170Z,978.96
2023-02-11T05:26:27.291Z,979.01
2023-02-11T05:27:27.365Z,979
2023-02-11T05:28:27.272Z,979.01
2023-02-11T05:29:27.200Z,978.99
2023-02-11T05:30:27.340Z,978.98
2023-02-11T05:32:27.338Z,978.96
2023-02-11T05:33:27.372Z,979
2023-02-11T05:34:27.267Z,979.03
2023-02-11T05:35:27.173Z,979.05
2023-02-11T05:36:27.243Z,979.06
2023-02-11T05:37:27.412Z,979.08
2023-02-11T05:39:27.393Z,979.12
2023-02-11T05:40:27.189Z,979.17
2023-02-11T05:41:27.339Z,979.18
2023-02-11T05:42:27.337Z,979.21
2023-02-11T05:43:27.338Z,979.19
2023-02-11T05:44:27.324Z,979.21
2023-02-11T05:45:27.248Z,979.24
2023-02-11T05:46:27.441Z,979.25
2023-02-11T05:47:27.340Z,979.27
2023-02-11T05:48:27.482Z,979.31
2023-02-11T05:49:27.338Z,979.35
2023-02-11T05:50:27.271Z,979.36
2023-02-11T05:52:27.340Z,979.38
2023-02-11T05:53:27.400Z,979.33
2023-02-11T05:54:27.272Z,979.35
2023-02-11T05:56:27.302Z,979.32
2023-02-11T05:57:27.354Z,979.35
2023-02-11T05:58:27.331Z,979.39
2023-02-11T06:00:27.404Z,979.41
2023-02-11T06:02:27.520Z,979.4
2023-02-11T06:03:27.453Z,979.39
2023-02-11T06:05:27.424Z,979.38
2023-02-11T06:06:27.437Z,979.37
2023-02-11T06:07:27.456Z,979.36
2023-02-11T06:08:27.461Z,979.39
2023-02-11T06:09:27.454Z,979.36
2023-02-11T06:10:27.312Z,979.35
2023-02-11T06:11:27.286Z,979.38
2023-02-11T06:12:27.442Z,979.36
2023-02-11T06:13:27.361Z,979.37
2023-02-11T06:14:27.489Z,979.4
2023-02-11T06:15:27.375Z,979.41
2023-02-11T06:17:27.527Z,979.44
2023-02-11T06:18:27.431Z,979.47
2023-02-11T06:19:27.363Z,979.45
2023-02-11T06:20:27.376Z,979.43
2023-02-11T06:22:27.356Z,979.39
2023-02-11T06:23:29.973Z,979.37
2023-02-11T06:24:48.005Z,979.35
2023-02-11T06:25:27.459Z,979.38
2023-02-11T06:26:27.376Z,979.42
2023-02-11T06:29:27.535Z,979.47
2023-02-11T06:30:27.386Z,979.45
2023-02-11T06:31:27.465Z,979.47
2023-02-11T06:32:42.566Z,979.48
2023-02-11T06:33:27.476Z,979.49
2023-02-11T06:35:27.450Z,979.52
2023-02-11T06:36:27.503Z,979.49
2023-02-11T06:37:27.418Z,979.48
2023-02-11T06:38:27.486Z,979.47
2023-02-11T06:39:27.436Z,979.48
2023-02-11T06:40:27.537Z,979.55
2023-02-11T06:41:27.368Z,979.51
2023-02-11T06:42:27.389Z,979.59
2023-02-11T06:43:27.564Z,979.56
2023-02-11T06:44:27.327Z,979.62
2023-02-11T06:45:27.399Z,979.58
2023-02-11T06:46:27.589Z,979.62
2023-02-11T06:47:27.593Z,979.61
2023-02-11T06:48:27.460Z,979.54
2023-02-11T06:49:27.414Z,979.57
2023-02-11T06:50:27.440Z,979.54
2023-02-11T06:51:27.375Z,979.55
2023-02-11T06:52:27.577Z,979.56
2023-02-11T06:53:27.482Z,979.5
2023-02-11T06:54:27.474Z,979.48
2023-02-11T06:55:27.501Z,979.49
2023-02-11T06:56:27.635Z,979.48
2023-02-11T06:57:27.365Z,979.44
2023-02-11T06:58:27.546Z,979.48
2023-02-11T06:59:27.370Z,979.46
2023-02-11T07:00:27.368Z,979.47
2023-02-11T07:01:27.508Z,979.46
2023-02-11T07:02:27.563Z,979.44
2023-02-11T07:03:27.448Z,979.42
2023-02-11T07:04:27.396Z,979.44
2023-02-11T07:05:27.422Z,979.41
2023-02-11T07:07:27.505Z,979.42
2023-02-11T07:08:27.425Z,979.43
2023-02-11T07:09:27.466Z,979.41
2023-02-11T07:10:27.412Z,979.39
2023-02-11T07:11:27.461Z,979.32
2023-02-11T07:12:27.545Z,979.3
2023-02-11T07:13:27.518Z,979.37
2023-02-11T07:14:27.514Z,979.25
2023-02-11T07:15:27.415Z,979.39
2023-02-11T07:16:27.532Z,979.32
2023-02-11T07:17:27.390Z,979.35
2023-02-11T07:18:27.454Z,979.25
2023-02-11T07:19:27.533Z,979.29
2023-02-11T07:20:27.391Z,979.26
2023-02-11T07:21:27.478Z,979.3
2023-02-11T07:22:27.612Z,979.17
2023-02-11T07:23:27.514Z,979.24
2023-02-11T07:24:27.675Z,979.29
2023-02-11T07:25:27.486Z,979.31
2023-02-11T07:26:27.632Z,979.26
2023-02-11T07:27:27.532Z,979.27
2023-02-11T07:28:27.446Z,979.24
2023-02-11T07:29:27.570Z,979.2
2023-02-11T07:30:27.429Z,979.14
2023-02-11T07:31:27.760Z,979.12
2023-02-11T07:32:27.532Z,979.15
2023-02-11T07:33:27.628Z,979.09
2023-02-11T07:34:27.579Z,979.1
2023-02-11T07:35:27.527Z,979.08
2023-02-11T07:36:27.463Z,979.09
2023-02-11T07:37:27.549Z,979.1
2023-02-11T07:38:27.433Z,979.12
2023-02-11T07:39:27.689Z,979.1
2023-02-11T07:40:27.605Z,979.08
2023-02-11T07:41:27.535Z,979.11
2023-02-11T07:42:27.487Z,979.1
2023-02-11T07:43:27.488Z,979.08
2023-02-11T07:44:27.627Z,979.1
2023-02-11T07:45:27.470Z,979.13
2023-02-11T07:46:27.652Z,979.14
2023-02-11T07:47:27.534Z,979.22
2023-02-11T07:48:27.705Z,979.19
2023-02-11T07:49:27.632Z,979.23
2023-02-11T07:50:28.707Z,979.21
2023-02-11T07:51:27.531Z,979.23
2023-02-11T07:52:27.558Z,979.2
2023-02-11T07:54:27.738Z,979.22
2023-02-11T07:55:27.639Z,979.21
2023-02-11T07:56:27.515Z,979.17
2023-02-11T07:57:27.687Z,979.28
2023-02-11T07:58:27.576Z,979.63
2023-02-11T07:59:27.728Z,979.85
2023-02-11T08:00:27.726Z,979.93
2023-02-11T08:01:27.528Z,979.97
2023-02-11T08:02:27.586Z,979.91
2023-02-11T08:03:27.691Z,979.89
2023-02-11T08:04:27.597Z,979.94
2023-02-11T08:05:27.583Z,979.98
2023-02-11T08:06:27.545Z,979.99
2023-02-11T08:07:27.725Z,980
2023-02-11T08:08:27.523Z,979.99
2023-02-11T08:09:27.571Z,979.93
2023-02-11T08:10:27.539Z,979.94
2023-02-11T08:11:27.624Z,979.85
2023-02-11T08:12:27.615Z,979.78
2023-02-11T08:13:27.578Z,979.67
2023-02-11T08:14:27.662Z,979.66
2023-02-11T08:15:27.664Z,979.64
2023-02-11T08:16:27.775Z,979.58
2023-02-11T08:17:27.680Z,979.5
2023-02-11T08:18:27.671Z,979.45
2023-02-11T08:19:27.619Z,979.44
2023-02-11T08:20:27.601Z,979.4
2023-02-11T08:21:27.709Z,979.38
2023-02-11T08:22:27.652Z,979.35
2023-02-11T08:23:27.547Z,979.27
2023-02-11T08:24:27.632Z,979.25
2023-02-11T08:25:27.560Z,979.28
2023-02-11T08:26:27.741Z,979.18
2023-02-11T08:27:27.730Z,979.16
2023-02-11T08:28:27.749Z,979.17
2023-02-11T08:29:27.680Z,979.09
2023-02-11T08:30:27.780Z,979.08
2023-02-11T08:31:27.876Z,979.01
2023-02-11T08:32:27.788Z,978.96
2023-02-11T08:33:27.631Z,978.88
2023-02-11T08:34:27.626Z,978.76
2023-02-11T08:35:27.702Z,978.74
2023-02-11T08:36:27.711Z,978.69
2023-02-11T08:37:27.637Z,978.75
2023-02-11T08:38:27.754Z,978.83
2023-02-11T08:39:27.735Z,978.89
2023-02-11T08:40:27.744Z,978.99
2023-02-11T08:41:27.626Z,979.12
2023-02-11T08:43:27.747Z,979.1
2023-02-11T08:44:27.692Z,979.08
2023-02-11T08:45:27.783Z,979.06
2023-02-11T08:46:27.645Z,979.04
2023-02-11T08:47:27.683Z,979.01
2023-02-11T08:48:27.640Z,979.02
2023-02-11T08:49:27.804Z,978.98
2023-02-11T08:50:27.679Z,978.96
2023-02-11T08:52:27.745Z,978.98
2023-02-11T08:53:27.729Z,979.11
2023-02-11T08:55:27.755Z,979.15
2023-02-11T08:57:27.706Z,979.19
2023-02-11T08:58:27.828Z,979.23
2023-02-11T08:59:27.708Z,979.29
2023-02-11T09:00:27.818Z,979.27
2023-02-11T09:01:27.731Z,979.32
2023-02-11T09:02:27.821Z,979.3
2023-02-11T09:04:27.772Z,979.35
2023-02-11T09:05:27.697Z,979.36
2023-02-11T09:06:27.788Z,979.33
2023-02-11T09:07:27.787Z,979.27
2023-02-11T09:09:27.826Z,979.24
2023-02-11T09:10:27.758Z,979.21
2023-02-11T09:12:27.827Z,979.23
2023-02-11T09:13:27.847Z,979.22
2023-02-11T09:14:27.820Z,979.26
2023-02-11T09:15:27.667Z,979.24
2023-02-11T09:17:27.932Z,979.31
2023-02-11T09:18:27.811Z,979.27
2023-02-11T09:19:27.802Z,979.31
2023-02-11T09:20:27.669Z,979.24
2023-02-11T09:21:27.902Z,979.19
2023-02-11T09:22:27.795Z,979.18
2023-02-11T09:23:27.748Z,979.15
2023-02-11T09:24:27.721Z,979.14
2023-02-11T09:25:27.807Z,979.09
2023-02-11T09:27:27.765Z,979.05
2023-02-11T09:28:27.857Z,979.11
2023-02-11T09:29:27.884Z,979.13
2023-02-11T09:30:27.828Z,979.12
2023-02-11T09:31:27.936Z,979.19
2023-02-11T09:32:27.781Z,979.2
2023-02-11T09:34:27.799Z,979.19
2023-02-11T09:35:28.710Z,979.17
2023-02-11T09:36:27.770Z,979.13
2023-02-11T09:37:27.823Z,979.11
2023-02-11T09:38:27.723Z,979.13
2023-02-11T09:39:27.822Z,979.15
2023-02-11T09:40:27.873Z,979.2
2023-02-11T09:41:27.768Z,979.23
2023-02-11T09:42:27.893Z,979.28
2023-02-11T09:43:27.807Z,979.3
2023-02-11T09:45:27.833Z,979.31
2023-02-11T09:46:27.838Z,979.28
2023-02-11T09:47:27.819Z,979.24
2023-02-11T09:48:27.742Z,979.17
2023-02-11T09:51:27.750Z,979.14
2023-02-11T09:54:27.884Z,979.13
2023-02-11T09:55:27.958Z,979.14
2023-02-11T09:56:27.945Z,979.15
2023-02-11T09:57:29.127Z,979.18
2023-02-11T09:58:27.887Z,979.24
2023-02-11T09:59:27.825Z,979.25
2023-02-11T10:00:27.937Z,979.32
2023-02-11T10:02:27.940Z,979.31
2023-02-11T10:04:28.034Z,979.25
2023-02-11T10:05:27.898Z,979.18
2023-02-11T10:06:27.930Z,979.17
2023-02-11T10:07:27.987Z,979.18
2023-02-11T10:08:27.941Z,979.19
2023-02-11T10:09:27.884Z,979.17
2023-02-11T10:10:28.885Z,979.14
2023-02-11T10:11:31.812Z,979.16
2023-02-11T10:12:27.855Z,979.07
2023-02-11T10:13:27.999Z,979.09
2023-02-11T10:14:27.918Z,979.07
2023-02-11T10:16:28.045Z,978.99
2023-02-11T10:17:27.970Z,978.95
2023-02-11T10:18:27.837Z,978.88
2023-02-11T10:19:27.849Z,978.84
2023-02-11T10:20:27.947Z,978.81
2023-02-11T10:21:28.110Z,978.82
2023-02-11T10:22:27.886Z,978.78
2023-02-11T10:23:27.985Z,978.77
2023-02-11T10:24:27.853Z,978.74
2023-02-11T10:25:27.828Z,978.79
2023-02-11T10:26:27.972Z,978.77
2023-02-11T10:27:27.886Z,978.82
2023-02-11T10:28:27.890Z,978.76
2023-02-11T10:29:27.940Z,978.77
2023-02-11T10:30:27.930Z,978.79
2023-02-11T10:31:27.928Z,978.78
2023-02-11T10:32:27.934Z,978.8
2023-02-11T10:33:27.966Z,978.81
2023-02-11T10:34:27.953Z,978.86
2023-02-11T10:35:27.981Z,978.89
2023-02-11T10:36:28.053Z,978.9
2023-02-11T10:37:28.034Z,978.91
2023-02-11T10:38:28.007Z,978.9
2023-02-11T10:39:28.021Z,978.97
2023-02-11T10:41:27.997Z,979.03
2023-02-11T10:42:28.067Z,979.04
2023-02-11T10:43:28.104Z,979.03
2023-02-11T10:44:28.035Z,979
2023-02-11T10:45:28.078Z,979.05
2023-02-11T10:46:28.112Z,979.06
2023-02-11T10:47:27.962Z,979.08
2023-02-11T10:48:28.178Z,979.07
2023-02-11T10:51:28.133Z,979.09
2023-02-11T10:52:28.035Z,979.06
2023-02-11T10:54:27.984Z,979.02
2023-02-11T10:55:28.021Z,979.04
2023-02-11T10:56:28.012Z,978.99
2023-02-11T10:57:27.921Z,979
2023-02-11T10:58:27.976Z,979.06
2023-02-11T10:59:28.053Z,978.99
2023-02-11T11:00:27.968Z,978.98
2023-02-11T11:01:28.155Z,978.96
2023-02-11T11:02:28.035Z,978.95
2023-02-11T11:03:28.152Z,978.94
2023-02-11T11:04:28.111Z,978.93
2023-02-11T11:05:27.978Z,978.91
2023-02-11T11:06:28.129Z,978.83
2023-02-11T11:07:27.973Z,978.85
2023-02-11T11:08:28.080Z,978.81
2023-02-11T11:09:28.135Z,978.79
2023-02-11T11:10:28.039Z,978.84
2023-02-11T11:11:28.135Z,978.79
2023-02-11T11:12:27.960Z,978.78
2023-02-11T11:13:28.070Z,978.79
2023-02-11T11:15:28.093Z,978.81
2023-02-11T11:16:28.335Z,978.78
2023-02-11T11:17:28.122Z,978.79
2023-02-11T11:18:28.015Z,978.78
2023-02-11T11:20:28.042Z,978.77
2023-02-11T11:21:27.995Z,978.76
2023-02-11T11:22:27.956Z,978.74
2023-02-11T11:23:28.081Z,978.76
2023-02-11T11:24:28.080Z,978.71
2023-02-11T11:25:28.018Z,978.67
2023-02-11T11:27:28.188Z,978.64
2023-02-11T11:28:28.146Z,978.65
2023-02-11T11:29:27.995Z,978.64
2023-02-11T11:30:28.205Z,978.68
2023-02-11T11:31:28.218Z,978.65
2023-02-11T11:32:28.142Z,978.64
2023-02-11T11:33:28.100Z,978.6
2023-02-11T11:34:28.223Z,978.62
2023-02-11T11:35:28.143Z,978.59
2023-02-11T11:37:28.198Z,978.57
2023-02-11T11:38:28.020Z,978.54
2023-02-11T11:39:28.163Z,978.58
2023-02-11T11:40:27.961Z,978.47
2023-02-11T11:41:28.097Z,978.45
2023-02-11T11:42:28.123Z,978.44
2023-02-11T11:46:28.223Z,978.46
2023-02-11T11:47:28.122Z,978.52
2023-02-11T11:48:28.113Z,978.55
2023-02-11T11:49:28.027Z,978.53
2023-02-11T11:50:28.149Z,978.54
2023-02-11T11:51:28.075Z,978.55
2023-02-11T11:52:28.055Z,978.57
2023-02-11T11:53:28.197Z,978.54
2023-02-11T11:54:28.139Z,978.56
2023-02-11T11:57:28.113Z,978.5
2023-02-11T11:58:28.130Z,978.54
2023-02-11T11:59:28.198Z,978.48
2023-02-11T12:00:28.217Z,978.52
2023-02-11T12:03:28.132Z,978.48
2023-02-11T12:04:29.498Z,978.51
2023-02-11T12:05:28.176Z,978.5
2023-02-11T12:06:28.126Z,978.52
2023-02-11T12:07:28.245Z,978.49
2023-02-11T12:08:28.251Z,978.43
2023-02-11T12:09:28.152Z,978.41
2023-02-11T12:10:28.123Z,978.42
2023-02-11T12:11:28.157Z,978.38
2023-02-11T12:12:28.174Z,978.4
2023-02-11T12:13:28.221Z,978.44
2023-02-11T12:14:28.187Z,978.38
2023-02-11T12:15:28.121Z,978.39
2023-02-11T12:16:28.259Z,978.36
2023-02-11T12:17:28.189Z,978.29
2023-02-11T12:18:28.083Z,978.3
2023-02-11T12:19:28.143Z,978.25
2023-02-11T12:20:28.171Z,978.26
2023-02-11T12:21:28.098Z,978.27
2023-02-11T12:23:28.183Z,978.23
2023-02-11T12:24:28.271Z,978.19
2023-02-11T12:27:28.188Z,978.16
2023-02-11T12:28:28.186Z,978.17
2023-02-11T12:29:28.193Z,978.19
2023-02-11T12:30:28.228Z,978.16
2023-02-11T12:32:28.173Z,978.15
2023-02-11T12:33:28.282Z,978.07
2023-02-11T12:35:28.208Z,978.08
2023-02-11T12:36:28.172Z,978.02
2023-02-11T12:37:28.203Z,978.03
2023-02-11T12:38:28.247Z,978.04
2023-02-11T12:39:28.261Z,978.05
2023-02-11T12:40:28.250Z,978.06
2023-02-11T12:41:28.136Z,978.09
2023-02-11T12:42:28.220Z,978.12
2023-02-11T12:43:28.132Z,978.11
2023-02-11T12:44:28.225Z,978.1
2023-02-11T12:45:28.344Z,978.13
2023-02-11T12:47:28.190Z,978.14
2023-02-11T12:48:28.214Z,978.12
2023-02-11T12:49:28.264Z,978.11
2023-02-11T12:50:28.248Z,978.06
2023-02-11T12:52:28.306Z,978
2023-02-11T12:53:28.285Z,978.03
2023-02-11T12:54:28.178Z,978.06
2023-02-11T12:55:28.178Z,978.04
2023-02-11T12:56:28.179Z,978.02
2023-02-11T12:57:28.337Z,978.01
2023-02-11T12:58:39.438Z,977.98
2023-02-11T12:59:28.377Z,977.97
2023-02-11T13:00:28.213Z,977.96
2023-02-11T13:01:28.427Z,977.93
2023-02-11T13:02:28.429Z,977.92
2023-02-11T13:03:28.269Z,977.95
2023-02-11T13:04:28.316Z,977.94
2023-02-11T13:05:28.215Z,978.02
2023-02-11T13:07:28.327Z,978
2023-02-11T13:08:28.267Z,977.99
2023-02-11T13:09:28.307Z,978
2023-02-11T13:10:28.217Z,978.02
2023-02-11T13:11:28.338Z,977.96
2023-02-11T13:12:28.312Z,977.99
2023-02-11T13:13:28.242Z,977.98
2023-02-11T13:14:28.236Z,977.97
2023-02-11T13:15:28.319Z,977.92
2023-02-11T13:16:28.250Z,977.91
2023-02-11T13:17:28.248Z,977.82
2023-02-11T13:18:28.266Z,977.77
2023-02-11T13:19:28.398Z,977.78
2023-02-11T13:20:28.244Z,977.76
2023-02-11T13:21:28.323Z,977.72
2023-02-11T13:22:28.257Z,977.71
2023-02-11T13:25:28.254Z,977.72
2023-02-11T13:26:28.258Z,977.76
2023-02-11T13:27:28.333Z,977.75
2023-02-11T13:28:28.340Z,977.7
2023-02-11T13:29:28.248Z,977.71
2023-02-11T13:30:28.468Z,977.72
2023-02-11T13:32:28.375Z,977.75
2023-02-11T13:33:28.352Z,977.74
2023-02-11T13:34:28.392Z,977.71
2023-02-11T13:36:28.375Z,977.72
2023-02-11T13:37:28.291Z,977.73
2023-02-11T13:38:28.401Z,977.75
2023-02-11T13:39:28.257Z,977.71
2023-02-11T13:40:28.349Z,977.72
2023-02-11T13:41:28.344Z,977.71
2023-02-11T13:42:28.523Z,977.69
2023-02-11T13:43:28.282Z,977.66
2023-02-11T13:44:28.314Z,977.64
2023-02-11T13:45:28.386Z,977.63
2023-02-11T13:46:28.397Z,977.61
2023-02-11T13:47:28.385Z,977.63
2023-02-11T13:49:28.331Z,977.61
2023-02-11T13:50:28.406Z,977.6
2023-02-11T13:51:28.293Z,977.59
2023-02-11T13:52:28.301Z,977.62
2023-02-11T13:53:28.369Z,977.63
2023-02-11T13:54:28.552Z,977.67
2023-02-11T13:55:28.323Z,977.62
2023-02-11T13:56:28.393Z,977.63
2023-02-11T13:57:28.403Z,977.61
2023-02-11T13:58:28.368Z,977.6
2023-02-11T13:59:28.311Z,977.55
2023-02-11T14:00:28.513Z,977.47
2023-02-11T14:01:28.524Z,977.46
2023-02-11T14:02:28.417Z,977.45
2023-02-11T14:03:28.393Z,977.43
2023-02-11T14:04:28.520Z,977.47
2023-02-11T14:05:28.415Z,977.49
2023-02-11T14:06:28.460Z,977.53
2023-02-11T14:07:28.398Z,977.5
2023-02-11T14:08:28.384Z,977.49
2023-02-11T14:09:28.324Z,977.54
2023-02-11T14:10:28.378Z,977.51
2023-02-11T14:11:28.373Z,977.46
2023-02-11T14:12:28.324Z,977.43
2023-02-11T14:13:28.430Z,977.44
2023-02-11T14:15:28.431Z,977.39